createdAt,value
2019-02-19T00:01:01.544Z,33.40
2019-02-19T00:03:30.186Z,32.40
2019-02-19T00:06:04.328Z,34.27
2019-02-19T00:12:02.114Z,35.57
2019-02-19T00:14:30.684Z,40.67
2019-02-19T00:16:59.257Z,40.00
2019-02-19T00:19:27.840Z,33.27
2019-02-19T00:21:56.405Z,34.97
2019-02-19T00:24:25.001Z,32.67
2019-02-19T00:26:53.577Z,33.47
2019-02-19T00:29:22.168Z,40.30
2019-02-19T00:31:51.500Z,33.47
2019-02-19T00:34:20.114Z,30.77
2019-02-19T00:36:48.669Z,36.90
2019-02-19T00:39:17.263Z,33.03
2019-02-19T00:41:45.828Z,27.43
2019-02-19T00:44:14.413Z,35.90
2019-02-19T00:46:42.981Z,34.17
2019-02-19T00:49:11.572Z,33.20
2019-02-19T00:51:40.141Z,32.57
2019-02-19T00:54:08.724Z,36.43
2019-02-19T00:56:37.285Z,35.50
2019-02-19T00:59:05.877Z,36.57
2019-02-19T01:01:34.448Z,35.20
2019-02-19T01:04:03.040Z,33.53
2019-02-19T01:06:31.605Z,37.40
2019-02-19T01:09:00.193Z,32.97
2019-02-19T01:11:28.765Z,33.27
2019-02-19T01:13:57.355Z,36.50
2019-02-19T01:16:25.988Z,30.10
2019-02-19T01:18:54.576Z,36.73
2019-02-19T01:21:23.145Z,34.93
2019-02-19T01:23:51.737Z,32.83
2019-02-19T01:26:20.879Z,30.83
2019-02-19T01:28:49.460Z,32.80
2019-02-19T01:31:18.027Z,39.60
2019-02-19T01:33:46.613Z,33.30
2019-02-19T01:36:15.249Z,31.87
2019-02-19T01:38:43.838Z,30.97
2019-02-19T01:41:12.404Z,32.67
2019-02-19T01:43:42.010Z,30.73
2019-02-19T01:46:10.573Z,33.83
2019-02-19T01:48:39.155Z,33.67
2019-02-19T01:51:07.795Z,30.27
2019-02-19T01:53:36.380Z,32.50
2019-02-19T01:56:05.047Z,35.30
2019-02-19T01:58:33.636Z,30.50
2019-02-19T02:01:02.261Z,33.07
2019-02-19T02:03:30.919Z,32.60
2019-02-19T02:05:59.499Z,32.63
2019-02-19T02:08:28.085Z,34.83
2019-02-19T02:10:56.659Z,35.40
2019-02-19T02:13:25.269Z,35.97
2019-02-19T02:15:53.917Z,40.37
2019-02-19T02:18:22.496Z,37.90
2019-02-19T02:20:51.157Z,39.97
2019-02-19T02:23:19.742Z,35.50
2019-02-19T02:25:48.325Z,34.63
2019-02-19T02:28:16.878Z,35.47
2019-02-19T02:30:45.572Z,32.30
2019-02-19T02:33:14.137Z,35.60
2019-02-19T02:35:42.727Z,35.97
2019-02-19T02:38:11.285Z,38.40
2019-02-19T02:40:39.894Z,35.97
2019-02-19T02:43:08.452Z,40.27
2019-02-19T02:45:37.031Z,34.60
2019-02-19T02:48:05.623Z,36.60
2019-02-19T02:50:34.272Z,40.90
2019-02-19T02:53:02.881Z,35.58
2019-02-19T02:55:31.474Z,35.60
2019-02-19T02:58:00.023Z,37.90
2019-02-19T03:00:28.632Z,35.50
2019-02-19T03:02:57.198Z,38.87
2019-02-19T03:05:25.779Z,39.70
2019-02-19T03:07:56.010Z,35.13
2019-02-19T03:10:24.612Z,32.73
2019-02-19T03:12:53.196Z,38.00
2019-02-19T03:15:21.824Z,37.25
2019-02-19T03:17:50.384Z,37.10
2019-02-19T03:20:18.977Z,40.20
2019-02-19T03:22:47.536Z,40.10
2019-02-19T03:25:16.124Z,35.80
2019-02-19T03:27:44.683Z,37.93
2019-02-19T03:30:13.358Z,34.03
2019-02-19T03:32:42.019Z,38.90
2019-02-19T03:35:10.688Z,38.53
2019-02-19T03:37:39.239Z,33.23
2019-02-19T03:40:08.673Z,39.37
2019-02-19T03:42:37.612Z,38.77
2019-02-19T03:45:08.432Z,41.60
2019-02-19T03:47:36.991Z,42.20
2019-02-19T03:50:06.415Z,39.27
2019-02-19T03:52:34.980Z,32.70
2019-02-19T03:55:03.731Z,40.23
2019-02-19T03:57:32.661Z,36.28
2019-02-19T04:00:01.316Z,38.90
2019-02-19T04:02:29.942Z,37.47
2019-02-19T04:04:58.644Z,35.27
2019-02-19T04:07:27.197Z,30.73
2019-02-19T04:09:55.783Z,34.27
2019-02-19T04:12:24.340Z,34.87
2019-02-19T04:14:52.920Z,36.80
2019-02-19T04:17:21.483Z,33.60
2019-02-19T04:19:50.063Z,33.03
2019-02-19T04:22:18.644Z,38.40
2019-02-19T04:24:47.232Z,30.70
2019-02-19T04:27:15.820Z,40.67
2019-02-19T04:29:44.382Z,30.23
2019-02-19T04:32:12.983Z,34.87
2019-02-19T04:34:41.568Z,31.33
2019-02-19T04:37:10.176Z,34.08
2019-02-19T04:39:38.734Z,31.13
2019-02-19T04:42:07.336Z,32.30
2019-02-19T04:44:35.900Z,33.37
2019-02-19T04:47:04.549Z,32.03
2019-02-19T04:49:33.120Z,34.63
2019-02-19T04:52:01.709Z,31.63
2019-02-19T04:54:30.265Z,37.50
2019-02-19T04:56:58.876Z,28.73
2019-02-19T04:59:27.441Z,29.60
2019-02-19T05:01:56.020Z,31.70
2019-02-19T05:04:24.577Z,34.50
2019-02-19T05:06:53.164Z,34.00
2019-02-19T05:09:21.737Z,29.77
2019-02-19T05:11:50.352Z,32.33
2019-02-19T05:14:18.905Z,33.43
2019-02-19T05:16:47.497Z,34.47
2019-02-19T05:19:16.081Z,27.13
2019-02-19T05:21:44.678Z,37.93
2019-02-19T05:24:13.256Z,33.70
2019-02-19T05:26:41.833Z,31.80
2019-02-19T05:29:10.400Z,32.97
2019-02-19T05:31:39.059Z,34.70
2019-02-19T05:34:07.632Z,34.60
2019-02-19T05:36:36.204Z,34.00
2019-02-19T05:39:06.028Z,31.67
2019-02-19T05:41:34.640Z,36.87
2019-02-19T05:44:03.213Z,35.47
2019-02-19T05:46:31.826Z,34.30
2019-02-19T05:49:00.383Z,36.58
2019-02-19T05:51:29.061Z,35.47
2019-02-19T05:53:57.755Z,36.60
2019-02-19T05:56:26.309Z,34.05
2019-02-19T05:58:54.863Z,37.70
2019-02-19T06:01:23.456Z,36.20
2019-02-19T06:03:52.101Z,32.63
2019-02-19T06:06:20.683Z,37.30
2019-02-19T06:08:49.253Z,36.63
2019-02-19T06:11:17.862Z,38.13
2019-02-19T06:13:46.422Z,37.30
2019-02-19T06:16:15.012Z,37.10
2019-02-19T06:18:43.572Z,41.75
2019-02-19T06:21:12.155Z,35.83
2019-02-19T06:23:40.732Z,47.73
2019-02-19T06:26:09.319Z,42.17
2019-02-19T06:28:37.879Z,39.43
2019-02-19T06:31:06.468Z,44.80
2019-02-19T06:33:35.029Z,38.67
2019-02-19T06:36:03.687Z,47.70
2019-02-19T06:38:32.256Z,55.15
2019-02-19T06:41:02.008Z,49.95
2019-02-19T06:43:30.789Z,48.98
2019-02-19T06:45:59.385Z,42.85
2019-02-19T06:48:27.953Z,47.27
2019-02-19T06:50:56.515Z,45.70
2019-02-19T06:53:25.128Z,37.97
2019-02-19T06:55:53.686Z,36.50
2019-02-19T06:58:22.337Z,38.17
2019-02-19T07:00:50.991Z,35.23
2019-02-19T07:03:21.204Z,32.57
2019-02-19T07:05:49.815Z,43.70
2019-02-19T07:08:18.360Z,33.00
2019-02-19T07:10:46.925Z,33.57
2019-02-19T07:13:15.569Z,37.43
2019-02-19T07:15:44.212Z,33.20
2019-02-19T07:18:12.795Z,37.03
2019-02-19T07:20:41.368Z,30.70
2019-02-19T07:23:09.954Z,27.37
2019-02-19T07:25:38.581Z,38.23
2019-02-19T07:28:07.166Z,31.83
2019-02-19T07:30:35.724Z,31.93
2019-02-19T07:33:04.378Z,43.67
2019-02-19T07:35:32.959Z,30.60
2019-02-19T07:38:01.528Z,35.00
2019-02-19T07:40:30.088Z,34.50
2019-02-19T07:42:58.668Z,42.93
2019-02-19T07:45:27.220Z,43.57
2019-02-19T07:47:55.797Z,42.90
2019-02-19T07:50:24.351Z,41.93
2019-02-19T07:52:52.938Z,39.20
2019-02-19T07:55:21.511Z,37.07
2019-02-19T07:57:50.107Z,32.87
2019-02-19T08:00:18.659Z,37.67
2019-02-19T08:02:47.244Z,32.30
2019-02-19T08:05:15.792Z,40.53
2019-02-19T08:07:44.372Z,41.23
2019-02-19T08:10:13.228Z,33.07
2019-02-19T08:12:41.806Z,34.60
2019-02-19T08:15:11.607Z,34.23
2019-02-19T08:17:40.323Z,34.00
2019-02-19T08:20:15.924Z,31.93
2019-02-19T08:22:40.087Z,32.73
2019-02-19T08:25:08.699Z,33.70
2019-02-19T08:27:37.312Z,30.00
2019-02-19T08:30:08.671Z,32.50
2019-02-19T08:32:37.288Z,37.53
2019-02-19T08:35:07.216Z,31.77
2019-02-19T08:37:35.797Z,40.47
2019-02-19T08:40:05.288Z,37.63
2019-02-19T08:42:33.876Z,33.50
2019-02-19T08:45:02.502Z,34.33
2019-02-19T08:47:31.103Z,33.87
2019-02-19T08:49:59.686Z,37.17
2019-02-19T08:52:28.265Z,33.03
2019-02-19T08:54:56.896Z,28.70
2019-02-19T08:57:25.465Z,32.77
2019-02-19T08:59:54.049Z,31.80
2019-02-19T09:02:25.436Z,33.17
2019-02-19T09:04:54.021Z,28.97
2019-02-19T09:07:22.613Z,35.13
2019-02-19T09:09:51.183Z,32.03
2019-02-19T09:12:19.743Z,33.53
2019-02-19T09:14:49.442Z,26.40
2019-02-19T09:17:17.996Z,31.70
2019-02-19T09:19:46.670Z,28.93
2019-02-19T09:22:15.224Z,31.80
2019-02-19T09:24:43.817Z,30.97
2019-02-19T09:27:12.400Z,27.43
2019-02-19T09:29:40.984Z,32.57
2019-02-19T09:32:09.551Z,31.47
2019-02-19T09:34:38.135Z,31.93
2019-02-19T09:37:06.737Z,24.33
2019-02-19T09:39:35.339Z,27.63
2019-02-19T09:42:04.052Z,26.43
2019-02-19T09:44:32.628Z,29.13
2019-02-19T09:47:01.204Z,28.30
2019-02-19T09:49:29.780Z,29.67
2019-02-19T09:51:58.371Z,30.93
2019-02-19T09:54:26.961Z,31.40
2019-02-19T09:56:55.592Z,29.87
2019-02-19T09:59:24.205Z,29.93
2019-02-19T10:01:52.764Z,30.87
2019-02-19T10:04:21.340Z,31.00
2019-02-19T10:06:49.905Z,28.80
2019-02-19T10:09:18.484Z,31.87
2019-02-19T10:11:47.116Z,29.13
2019-02-19T10:14:15.691Z,24.70
2019-02-19T10:16:44.272Z,25.97
2019-02-19T10:19:12.857Z,24.80
2019-02-19T10:21:41.433Z,28.27
2019-02-19T10:24:09.993Z,29.93
2019-02-19T10:26:38.567Z,26.97
2019-02-19T10:29:07.120Z,30.53
2019-02-19T10:31:35.704Z,26.50
2019-02-19T10:34:04.331Z,20.87
2019-02-19T10:36:32.944Z,27.40
2019-02-19T10:39:01.517Z,22.53
2019-02-19T10:41:30.093Z,24.57
2019-02-19T10:43:58.664Z,23.67
2019-02-19T10:46:27.300Z,21.70
2019-02-19T10:48:55.859Z,26.20
2019-02-19T10:51:24.450Z,30.57
2019-02-19T10:53:53.108Z,32.33
2019-02-19T10:56:21.776Z,28.57
2019-02-19T10:58:50.361Z,31.17
2019-02-19T11:01:19.004Z,27.03
2019-02-19T11:03:47.628Z,28.30
2019-02-19T11:06:16.237Z,25.10
2019-02-19T11:08:44.783Z,24.90
2019-02-19T11:11:13.364Z,23.70
2019-02-19T11:13:41.991Z,26.43
2019-02-19T11:16:10.596Z,22.83
2019-02-19T11:18:39.160Z,25.47
2019-02-19T11:21:07.816Z,21.97
2019-02-19T11:23:36.404Z,24.20
2019-02-19T11:26:05.099Z,21.87
2019-02-19T11:28:33.669Z,26.30
2019-02-19T11:31:02.284Z,21.17
2019-02-19T11:33:30.839Z,27.27
2019-02-19T11:35:59.389Z,20.37
2019-02-19T11:38:27.975Z,23.90
2019-02-19T11:40:56.536Z,23.97
2019-02-19T11:43:25.115Z,21.00
2019-02-19T11:45:53.690Z,26.03
2019-02-19T11:48:22.276Z,18.47
2019-02-19T11:50:50.902Z,22.13
2019-02-19T11:53:19.480Z,20.10
2019-02-19T11:55:48.045Z,24.87
2019-02-19T11:58:16.639Z,24.17
2019-02-19T12:00:45.664Z,22.23
2019-02-19T12:03:14.261Z,22.07
2019-02-19T12:05:42.812Z,15.00
2019-02-19T12:08:11.393Z,25.60
2019-02-19T12:10:39.950Z,18.97
2019-02-19T12:13:08.599Z,24.97
2019-02-19T12:15:37.183Z,22.73
2019-02-19T12:18:05.899Z,20.03
2019-02-19T12:20:34.477Z,19.20
2019-02-19T12:23:03.064Z,24.40
2019-02-19T12:25:31.624Z,23.53
2019-02-19T12:28:00.250Z,19.63
2019-02-19T12:30:28.848Z,21.57
2019-02-19T12:32:57.434Z,19.17
2019-02-19T12:35:26.080Z,22.37
2019-02-19T12:37:54.652Z,20.17
2019-02-19T12:40:23.287Z,19.73
2019-02-19T12:42:51.890Z,17.57
2019-02-19T12:45:20.539Z,19.47
2019-02-19T12:47:49.115Z,24.60
2019-02-19T12:50:18.940Z,19.87
2019-02-19T12:52:47.516Z,22.53
2019-02-19T12:55:16.100Z,21.83
2019-02-19T12:57:44.690Z,21.23
2019-02-19T13:00:17.827Z,20.83
2019-02-19T13:02:46.398Z,19.80
2019-02-19T13:05:15.804Z,17.77
2019-02-19T13:07:44.424Z,22.63
2019-02-19T13:10:13.202Z,17.60
2019-02-19T13:12:41.835Z,19.77
2019-02-19T13:15:15.410Z,16.87
2019-02-19T13:17:43.972Z,14.60
2019-02-19T13:20:14.120Z,16.63
2019-02-19T13:22:42.811Z,17.20
2019-02-19T13:25:12.168Z,16.63
2019-02-19T13:27:40.787Z,17.07
2019-02-19T13:30:21.168Z,23.00
2019-02-19T13:32:49.751Z,22.60
2019-02-19T13:35:18.346Z,22.17
2019-02-19T13:37:47.071Z,22.17
2019-02-19T13:40:21.772Z,21.57
2019-02-19T13:42:50.334Z,22.60
2019-02-19T13:45:18.920Z,25.47
2019-02-19T13:47:47.498Z,19.17
2019-02-19T13:50:26.442Z,26.17
2019-02-19T13:53:02.800Z,21.23
2019-02-19T13:55:33.083Z,23.23
2019-02-19T13:58:01.716Z,22.03
2019-02-19T14:00:32.040Z,22.17
2019-02-19T14:03:00.998Z,23.03
2019-02-19T14:05:29.531Z,19.40
2019-02-19T14:07:58.236Z,19.17
2019-02-19T14:10:26.927Z,16.00
2019-02-19T14:12:59.626Z,19.23
2019-02-19T14:15:46.238Z,19.43
2019-02-19T14:18:16.552Z,21.03
2019-02-19T14:20:52.501Z,19.93
2019-02-19T14:23:22.699Z,21.33
2019-02-19T14:25:52.944Z,18.40
2019-02-19T14:28:25.751Z,20.60
2019-02-19T14:31:04.579Z,21.90
2019-02-19T14:33:37.241Z,23.67
2019-02-19T14:36:10.650Z,18.77
2019-02-19T14:38:40.860Z,18.43
2019-02-19T14:41:11.083Z,19.70
2019-02-19T14:43:46.837Z,16.23
2019-02-19T14:46:22.820Z,17.63
2019-02-19T14:48:55.547Z,16.30
2019-02-19T14:51:31.647Z,21.17
2019-02-19T14:54:01.864Z,18.80
2019-02-19T14:56:32.084Z,18.53
2019-02-19T15:02:09.566Z,27.73
2019-02-19T15:04:42.982Z,22.77
2019-02-19T15:07:13.555Z,19.03
2019-02-19T15:09:52.913Z,15.53
2019-02-19T15:12:23.133Z,18.93
2019-02-19T15:18:16.257Z,14.00
2019-02-19T15:20:55.746Z,22.83
2019-02-19T15:23:25.968Z,15.90
2019-02-19T15:25:58.951Z,16.93
2019-02-19T15:28:41.167Z,18.23
2019-02-19T15:31:27.548Z,18.83
2019-02-19T15:33:57.747Z,16.50
2019-02-19T15:36:36.914Z,16.23
2019-02-19T15:39:13.581Z,16.30
2019-02-19T15:41:46.796Z,22.67
2019-02-19T15:44:20.074Z,24.20
2019-02-19T15:46:50.287Z,20.47
2019-02-19T15:49:29.551Z,20.53
2019-02-19T15:52:16.058Z,21.83
2019-02-19T15:55:01.577Z,20.57
2019-02-19T15:57:31.841Z,20.47
2019-02-19T16:00:18.541Z,20.17
2019-02-19T16:02:48.833Z,19.07
2019-02-19T16:05:31.292Z,27.23
2019-02-19T16:08:01.535Z,20.40
2019-02-19T16:10:34.742Z,24.50
2019-02-19T16:13:13.915Z,22.10
2019-02-19T16:18:42.387Z,20.53
2019-02-19T16:21:12.724Z,25.57
2019-02-19T16:23:45.987Z,20.27
2019-02-19T16:26:34.296Z,20.13
2019-02-19T16:29:07.299Z,22.90
2019-02-19T16:31:43.676Z,27.03
2019-02-19T16:34:17.163Z,38.27
2019-02-19T16:36:49.839Z,104.20
2019-02-19T16:39:20.164Z,67.87
2019-02-19T16:41:50.389Z,31.53
2019-02-19T16:44:27.716Z,30.13
2019-02-19T16:47:10.108Z,26.10
2019-02-19T16:49:43.265Z,31.63
2019-02-19T16:52:13.451Z,31.70
2019-02-19T16:55:09.921Z,28.10
2019-02-19T16:57:46.127Z,34.13
2019-02-19T17:00:28.580Z,24.20
2019-02-19T17:02:58.810Z,20.30
2019-02-19T17:05:44.381Z,21.33
2019-02-19T17:08:26.656Z,25.17
2019-02-19T17:11:06.077Z,23.33
2019-02-19T17:13:39.339Z,19.67
2019-02-19T17:16:09.529Z,23.57
2019-02-19T17:18:57.972Z,25.40
2019-02-19T17:21:34.041Z,20.97
2019-02-19T17:24:06.896Z,23.83
2019-02-19T17:26:52.129Z,18.93
2019-02-19T17:29:22.347Z,25.33
2019-02-19T17:32:01.381Z,27.30
2019-02-19T17:34:31.628Z,23.43
2019-02-19T17:37:07.967Z,23.07
2019-02-19T17:39:38.628Z,20.10
2019-02-19T17:42:08.824Z,23.27
2019-02-19T17:44:55.578Z,24.53
2019-02-19T17:47:25.968Z,27.70
2019-02-19T17:49:58.928Z,54.90
2019-02-19T17:52:43.992Z,38.73
2019-02-19T17:55:14.210Z,70.30
2019-02-19T17:57:47.560Z,42.00
2019-02-19T18:00:20.749Z,36.17
2019-02-19T18:02:51.083Z,58.63
2019-02-19T18:05:37.463Z,43.23
2019-02-19T18:08:15.101Z,37.47
2019-02-19T18:11:03.701Z,30.43
2019-02-19T18:13:33.883Z,31.77
2019-02-19T18:16:06.936Z,34.03
2019-02-19T18:18:37.238Z,37.23
2019-02-19T18:21:05.903Z,29.57
2019-02-19T18:23:34.455Z,34.13
2019-02-19T18:26:03.025Z,27.67
2019-02-19T18:28:31.575Z,29.60
2019-02-19T18:31:00.172Z,35.33
2019-02-19T18:33:28.728Z,32.57
2019-02-19T18:35:57.326Z,34.97
2019-02-19T18:38:25.959Z,35.17
2019-02-19T18:40:54.610Z,29.83
2019-02-19T18:43:23.115Z,31.47
2019-02-19T18:45:51.700Z,37.10
2019-02-19T18:48:20.295Z,32.20
2019-02-19T18:50:56.426Z,38.57
2019-02-19T18:53:19.174Z,42.47
2019-02-19T18:55:47.827Z,36.37
2019-02-19T18:58:16.412Z,33.20
2019-02-19T19:00:44.989Z,33.33
2019-02-19T19:03:13.560Z,34.17
2019-02-19T19:05:42.179Z,34.53
2019-02-19T19:08:10.732Z,35.43
2019-02-19T19:10:39.289Z,31.00
2019-02-19T19:13:07.861Z,27.50
2019-02-19T19:15:36.417Z,29.27
2019-02-19T19:18:05.067Z,28.80
2019-02-19T19:20:33.612Z,26.97
2019-02-19T19:23:02.213Z,30.20
2019-02-19T19:25:30.832Z,29.73
2019-02-19T19:27:59.599Z,28.53
2019-02-19T19:30:28.278Z,27.23
2019-02-19T19:32:56.856Z,29.93
2019-02-19T19:35:41.281Z,31.33
2019-02-19T19:38:09.845Z,31.20
2019-02-19T19:40:38.429Z,30.20
2019-02-19T19:43:07.051Z,37.93
2019-02-19T19:45:35.745Z,44.47
2019-02-19T19:48:04.388Z,53.97
2019-02-19T19:50:32.940Z,47.73
2019-02-19T19:53:01.545Z,37.90
2019-02-19T19:55:30.189Z,40.40
2019-02-19T19:57:58.761Z,40.00
2019-02-19T20:00:27.400Z,43.27
2019-02-19T20:02:55.956Z,35.77
2019-02-19T20:05:24.750Z,35.33
2019-02-19T20:07:53.359Z,33.13
2019-02-19T20:10:21.972Z,38.33
2019-02-19T20:12:50.580Z,38.33
2019-02-19T20:15:19.127Z,34.17
2019-02-19T20:17:47.708Z,35.87
2019-02-19T20:20:16.271Z,32.43
2019-02-19T20:22:44.868Z,29.87
2019-02-19T20:25:14.155Z,29.17
2019-02-19T20:27:42.760Z,33.83
2019-02-19T20:30:14.032Z,30.20
2019-02-19T20:32:42.678Z,30.13
2019-02-19T20:35:11.505Z,34.67
2019-02-19T20:37:40.330Z,30.80
2019-02-19T20:40:12.740Z,28.53
2019-02-19T20:42:41.523Z,31.50
2019-02-19T20:45:11.884Z,27.73
2019-02-19T20:47:40.569Z,30.37
2019-02-19T20:50:11.011Z,27.30
2019-02-19T20:52:39.645Z,35.47
2019-02-19T20:55:10.085Z,30.77
2019-02-19T20:57:38.687Z,33.30
2019-02-19T21:00:32.204Z,34.10
2019-02-19T21:03:00.784Z,32.33
2019-02-19T21:05:29.365Z,33.30
2019-02-19T21:07:57.985Z,30.87
2019-02-19T21:10:26.561Z,35.80
2019-02-19T21:12:55.117Z,31.27
2019-02-19T21:15:23.679Z,32.87
2019-02-19T21:17:52.228Z,33.00
2019-02-19T21:20:22.110Z,34.10
2019-02-19T21:22:50.760Z,37.23
2019-02-19T21:25:20.079Z,35.73
2019-02-19T21:27:48.588Z,43.10
2019-02-19T21:30:17.402Z,57.87
2019-02-19T21:32:45.951Z,62.63
2019-02-19T21:35:14.668Z,50.17
2019-02-19T21:37:43.320Z,67.67
2019-02-19T21:40:13.332Z,69.87
2019-02-19T21:42:41.906Z,66.60
2019-02-19T21:45:12.878Z,49.77
2019-02-19T21:47:41.538Z,50.00
2019-02-19T21:50:11.640Z,55.20
2019-02-19T21:52:40.362Z,53.83
2019-02-19T21:55:12.907Z,51.43
2019-02-19T21:57:41.529Z,44.13
2019-02-19T22:00:13.725Z,48.20
2019-02-19T22:02:42.374Z,44.03
2019-02-19T22:05:11.219Z,39.30
2019-02-19T22:07:39.770Z,38.60
2019-02-19T22:10:12.870Z,39.63
2019-02-19T22:12:41.507Z,34.63
2019-02-19T22:15:12.480Z,38.27
2019-02-19T22:17:41.068Z,34.67
2019-02-19T22:20:37.978Z,34.43
2019-02-19T22:23:06.900Z,31.23
2019-02-19T22:25:35.549Z,33.60
2019-02-19T22:28:04.299Z,35.87
2019-02-19T22:30:32.886Z,35.83
2019-02-19T22:33:01.440Z,34.77
2019-02-19T22:35:30.026Z,34.37
2019-02-19T22:37:58.604Z,36.47
2019-02-19T22:40:27.185Z,36.37
2019-02-19T22:42:55.745Z,32.50
2019-02-19T22:45:24.343Z,34.60
2019-02-19T22:47:53.633Z,32.43
2019-02-19T22:50:22.481Z,37.90
2019-02-19T22:52:51.209Z,33.27
2019-02-19T22:55:37.957Z,30.20
2019-02-19T22:58:06.639Z,29.33
2019-02-19T23:00:48.700Z,33.77
2019-02-19T23:03:22.068Z,33.07
2019-02-19T23:05:50.639Z,32.80
2019-02-19T23:08:19.201Z,31.73
2019-02-19T23:10:47.780Z,37.60
2019-02-19T23:13:16.331Z,33.67
2019-02-19T23:15:44.916Z,33.97
2019-02-19T23:18:13.468Z,31.43
2019-02-19T23:20:42.208Z,37.30
2019-02-19T23:23:10.764Z,34.73
2019-02-19T23:25:39.421Z,34.23
2019-02-19T23:28:08.039Z,31.27
2019-02-19T23:30:36.640Z,35.80
2019-02-19T23:33:05.279Z,38.47
2019-02-19T23:35:35.515Z,40.80
2019-02-19T23:38:04.231Z,38.13
2019-02-19T23:40:32.860Z,45.03
2019-02-19T23:43:01.433Z,38.30
2019-02-19T23:45:30.052Z,38.90
2019-02-19T23:47:58.629Z,31.50
2019-02-19T23:50:27.193Z,35.67
2019-02-19T23:52:55.776Z,35.80
2019-02-19T23:55:24.348Z,38.97
2019-02-19T23:57:52.909Z,36.40
